This is the latest recevied weather packets stored in our database for station/object DK8HC-WX. If no packets are shown the sender has not sent any weather packets the latest 10 day(s).
| Time | Temp. | Humidity | Pressure | Rain* | Wind** | Luminosity | Snow |
|---|---|---|---|---|---|---|---|
| 1777771904 | 13.33° C | 100% | 1015.7 hPa | - | - | - | - |
| 1777768303 | 16.11° C | 100% | 1014.9 hPa | - | - | - | - |
| 1777767703 | 16.11° C | 100% | 1014.9 hPa | - | - | - | - |
| 1777767103 | 16.67° C | 100% | 1015 hPa | - | - | - | - |
| 1777766503 | 16.11° C | 100% | 1015.4 hPa | - | - | - | - |
| 1777765903 | 16.11° C | 100% | 1015.5 hPa | - | - | - | - |
| 1777764703 | 16.11° C | 100% | 1016 hPa | - | - | - | - |
| 1777764103 | 16.67° C | 100% | 1015.9 hPa | - | - | - | - |
| 1777761103 | 15.56° C | 100% | 1015.3 hPa | - | - | - | - |
| 1777759903 | 15° C | 100% | 1014.9 hPa | - | - | - | - |
| 1777759303 | 16.11° C | 100% | 1015 hPa | - | - | - | - |
| 1777758703 | 16.67° C | 100% | 1014.8 hPa | - | - | - | - |
| 1777757503 | 17.22° C | 100% | 1015 hPa | - | - | - | - |
| 1777756903 | 17.22° C | 100% | 1015.1 hPa | - | - | - | - |
| 1777755103 | 17.22° C | 100% | 1015.3 hPa | - | - | - | - |
| 1777753902 | 18.33° C | 100% | 1015.5 hPa | - | - | - | - |
| 1777753302 | 18.33° C | 100% | 1015.7 hPa | - | - | - | - |
| 1777752702 | 17.78° C | 100% | 1015.7 hPa | - | - | - | - |
| 1777752102 | 18.33° C | 100% | 1015.9 hPa | - | - | - | - |
| 1777749702 | 20° C | 89% | 1016.1 hPa | - | - | - | - |
| 1777749103 | 21.67° C | 70% | 1016.2 hPa | - | - | - | - |
| 1777739502 | 26.11° C | 45% | 1017.5 hPa | - | - | - | - |
| 1777738902 | 27.22° C | 42% | 1017.7 hPa | - | - | - | - |
| 1777738302 | 28.33° C | 38% | 1017.8 hPa | - | - | - | - |
| 1777737702 | 27.78° C | 39% | 1017.9 hPa | - | - | - | - |
* Rain since midnight (hover to see other rain measurements)
** Current wind speed in m/s (hover to see current wind gust speed)